52WI weather

John'S Field
Athens, Wisconsin, United States

Public forecast

Using degrees Fahrenheit for public forecast. Weather courtesy of forecast.io.

METAR (pilot weather report)

Closest report is Taylor County Airport, 11.0 nm (20.4 km) WSW. Retrieved 2019/08/26 09:35 UTC (0 seconds ago):

KMDZ 260935Z AUTO 12005KT 10SM SCT080 13/12 A2993 RMK AO2 T01310123

TAF (pilot weather forecast)

Closest forecast is Wausau Downtown Airport, 23.0 nm (42.6 km) SE. Retrieved 2019/08/26 06:22 UTC (3 hours ago):

TAF KAUW 260520Z 2606/2706 13005KT P6SM BKN035 BKN090 FM261500 14009G15KT P6SM BKN025 BKN060 PROB30 2615/2621 5SM -SHRA BKN015 FM262100 14010G18KT 4SM -SHRA SCT008 OVC015 TEMPO 2621/2624 2SM -SHRA BKN008 FM270000 12004KT 4SM -SHRA SCT004 OVC008 FM270300 22005KT 4SM -SHRA OVC005